createdAt,value
2023-04-08T00:15:43.966Z,1.20
2023-04-08T00:18:12.146Z,2.63
2023-04-08T00:20:40.382Z,1.92
2023-04-08T00:23:08.550Z,1.85
2023-04-08T00:25:36.475Z,1.75
2023-04-08T00:28:04.602Z,2.03
2023-04-08T00:30:33.215Z,1.83
2023-04-08T00:33:02.977Z,1.95
2023-04-08T00:35:31.068Z,2.67
2023-04-08T00:50:33.346Z,1.50
2023-04-08T00:53:01.624Z,1.75
2023-04-08T00:55:29.806Z,1.92
2023-04-08T00:57:58.702Z,1.77
2023-04-08T01:00:29.008Z,2.30
2023-04-08T01:03:22.542Z,2.13
2023-04-08T01:06:20.444Z,1.38
2023-04-08T01:12:01.502Z,1.58
2023-04-08T01:14:46.240Z,1.25
2023-04-08T01:17:15.818Z,2.47
2023-04-08T01:23:08.384Z,0.95
2023-04-08T01:25:38.555Z,1.83
2023-04-08T01:28:12.681Z,1.35
2023-04-08T01:30:43.126Z,1.45
2023-04-08T02:06:51.503Z,1.42
2023-04-08T02:09:20.206Z,1.10
2023-04-08T02:11:48.422Z,2.05
2023-04-08T02:14:16.961Z,0.60
2023-04-08T02:46:17.058Z,2.17
2023-04-08T02:48:45.515Z,2.58
2023-04-08T02:51:13.687Z,0.80
2023-04-08T02:53:41.705Z,1.00
2023-04-08T03:17:36.061Z,1.17
2023-04-08T03:20:05.267Z,1.48
2023-04-08T03:22:33.306Z,1.48
2023-04-08T03:25:01.390Z,1.38
2023-04-08T03:27:29.580Z,0.60
2023-04-08T03:29:58.446Z,0.65
2023-04-08T03:32:26.841Z,1.00
2023-04-08T03:34:56.384Z,1.35
2023-04-08T03:37:24.362Z,0.85
2023-04-08T03:39:52.391Z,0.63
2023-04-08T03:42:20.402Z,1.10
2023-04-08T04:01:42.436Z,1.17
2023-04-08T04:04:11.315Z,0.77
2023-04-08T04:06:39.711Z,0.95
2023-04-08T05:04:50.045Z,1.10
2023-04-08T05:07:18.218Z,0.20
2023-04-08T05:09:46.562Z,0.82
2023-04-08T05:12:14.873Z,0.43
2023-04-08T05:14:42.862Z,0.73
2023-04-08T05:17:11.365Z,0.30
2023-04-08T05:19:39.583Z,0.65
2023-04-08T05:22:09.561Z,1.38
2023-04-08T05:24:37.665Z,0.30
2023-04-08T05:27:05.745Z,0.30
2023-04-08T05:29:33.704Z,0.40
2023-04-08T05:32:02.037Z,1.17
2023-04-08T05:34:32.208Z,0.75
2023-04-08T05:37:00.315Z,0.50
2023-04-08T05:39:29.676Z,1.40
2023-04-08T05:41:57.898Z,0.43
2023-04-08T05:44:26.037Z,0.85
2023-04-08T05:46:54.352Z,0.85
2023-04-08T05:49:22.357Z,0.80
2023-04-08T05:51:50.808Z,0.70
2023-04-08T05:54:18.844Z,0.50
2023-04-08T05:56:49.182Z,0.50
2023-04-08T05:59:17.214Z,0.50
2023-04-08T06:01:45.364Z,0.45
2023-04-08T06:04:14.358Z,0.93
2023-04-08T06:06:42.799Z,0.60
2023-04-08T06:09:10.808Z,0.63
2023-04-08T06:11:38.876Z,0.88
2023-04-08T06:14:08.345Z,0.65
2023-04-08T06:16:36.372Z,0.50
2023-04-08T06:19:04.296Z,0.73
2023-04-08T06:21:32.360Z,1.00
2023-04-08T06:24:00.366Z,0.70
2023-04-08T06:26:28.644Z,0.77
2023-04-08T06:28:56.704Z,0.90
2023-04-08T06:31:26.364Z,0.80
2023-04-08T06:33:54.306Z,2.05
2023-04-08T06:36:22.419Z,0.82
2023-04-08T06:38:50.833Z,0.60
2023-04-08T06:41:19.128Z,0.57
2023-04-08T06:43:47.095Z,1.20
2023-04-08T06:46:15.049Z,0.65
2023-04-08T06:48:44.708Z,0.50
2023-04-08T06:51:12.708Z,0.60
2023-04-08T06:53:40.715Z,0.25
2023-04-08T06:56:08.797Z,0.30
2023-04-08T06:58:36.853Z,1.45
2023-04-08T07:01:05.248Z,1.52
2023-04-08T07:03:33.332Z,2.17
2023-04-08T07:06:04.635Z,0.80
2023-04-08T07:08:32.895Z,0.85
2023-04-08T07:11:01.157Z,0.90
2023-04-08T07:13:29.802Z,0.60
2023-04-08T07:15:58.183Z,0.40
2023-04-08T07:18:26.618Z,0.60
2023-04-08T07:20:55.003Z,0.28
2023-04-08T07:23:24.616Z,1.38
2023-04-08T07:25:52.812Z,0.43
2023-04-08T07:28:21.044Z,0.40
2023-04-08T07:30:49.560Z,0.30
2023-04-08T07:33:20.104Z,0.60
2023-04-08T07:35:48.059Z,0.85
2023-04-08T07:38:16.982Z,0.50
2023-04-08T07:40:47.186Z,1.20
2023-04-08T07:43:15.377Z,0.52
2023-04-08T07:45:43.380Z,1.02
2023-04-08T07:48:11.619Z,0.90
2023-04-08T07:51:08.127Z,0.57
2023-04-08T07:53:28.062Z,1.02
2023-04-08T07:55:57.686Z,7.30
2023-04-08T07:58:26.819Z,4.53
2023-04-08T08:00:55.360Z,5.05
2023-04-08T08:03:23.520Z,4.63
2023-04-08T08:05:53.875Z,4.40
2023-04-08T08:08:22.053Z,3.20
2023-04-08T08:11:06.344Z,2.75
2023-04-08T08:13:34.592Z,3.00
2023-04-08T08:16:02.664Z,4.82
2023-04-08T08:18:31.041Z,1.77
2023-04-08T08:21:01.797Z,3.70
2023-04-08T08:23:30.017Z,4.72
2023-04-08T08:26:06.701Z,1.95
2023-04-08T08:28:35.103Z,2.85
2023-04-08T08:31:11.453Z,2.65
2023-04-08T08:33:42.203Z,2.00
2023-04-08T08:36:10.182Z,1.92
2023-04-08T08:38:38.276Z,2.38
2023-04-08T08:41:07.655Z,2.92
2023-04-08T08:43:36.137Z,3.17
2023-04-08T08:46:04.027Z,3.35
2023-04-08T08:48:33.595Z,2.25
2023-04-08T08:51:01.612Z,5.10
2023-04-08T08:53:34.313Z,4.10
2023-04-08T08:58:36.555Z,2.42
2023-04-08T09:01:24.577Z,2.53
2023-04-08T09:04:12.312Z,4.38
2023-04-08T09:06:41.609Z,2.72
2023-04-08T09:09:12.920Z,6.38
2023-04-08T09:11:42.873Z,3.65
2023-04-08T09:14:23.485Z,3.10
2023-04-08T09:16:52.840Z,3.92
2023-04-08T09:19:21.765Z,4.07
2023-04-08T09:22:08.625Z,3.92
2023-04-08T09:24:38.533Z,4.57
2023-04-08T09:27:10.286Z,5.22
2023-04-08T09:29:41.550Z,3.83
2023-04-08T09:32:10.300Z,5.68
2023-04-08T09:34:39.115Z,4.25
2023-04-08T09:37:14.507Z,4.53
2023-04-08T09:39:43.135Z,3.88
2023-04-08T09:42:13.865Z,3.25
2023-04-08T09:44:47.871Z,6.82
2023-04-08T09:47:22.661Z,4.93
2023-04-08T09:49:55.764Z,5.40
2023-04-08T09:52:31.203Z,2.90
2023-04-08T09:55:04.834Z,3.85
2023-04-08T09:57:43.185Z,4.68
2023-04-08T10:00:16.506Z,5.18
2023-04-08T10:02:59.228Z,4.05
2023-04-08T10:05:28.847Z,3.63
2023-04-08T10:07:58.367Z,3.40
2023-04-08T10:10:27.723Z,3.60
2023-04-08T10:12:56.462Z,7.07
2023-04-08T10:15:31.479Z,3.22
2023-04-08T10:18:33.981Z,4.88
2023-04-08T10:21:05.223Z,3.42
2023-04-08T10:24:00.494Z,4.07
2023-04-08T10:26:36.838Z,2.75
2023-04-08T10:29:38.627Z,2.30
2023-04-08T10:32:09.321Z,2.15
2023-04-08T10:34:54.020Z,2.67
2023-04-08T10:37:22.628Z,3.90
2023-04-08T10:39:53.454Z,3.20
2023-04-08T10:42:29.029Z,3.65
2023-04-08T10:45:02.694Z,2.50
2023-04-08T10:47:33.301Z,4.28
2023-04-08T10:50:02.841Z,2.70
2023-04-08T10:52:32.230Z,2.35
2023-04-08T10:55:00.874Z,1.90
2023-04-08T10:57:29.281Z,3.05
2023-04-08T10:59:58.209Z,1.95
2023-04-08T11:02:35.347Z,5.28
2023-04-08T11:05:04.790Z,2.17
2023-04-08T11:07:33.590Z,6.45
2023-04-08T11:10:04.563Z,4.45
2023-04-08T11:12:34.561Z,2.97
2023-04-08T11:15:03.804Z,1.63
2023-04-08T11:17:34.992Z,1.80
2023-04-08T11:20:06.935Z,2.38
2023-04-08T11:22:37.520Z,1.95
2023-04-08T11:25:09.012Z,4.60
2023-04-08T11:27:38.368Z,3.65
2023-04-08T11:30:08.622Z,2.15
2023-04-08T11:32:40.058Z,2.30
2023-04-08T11:35:09.129Z,1.45
2023-04-08T11:37:41.972Z,2.78
2023-04-08T11:40:12.048Z,3.42
2023-04-08T11:42:41.161Z,3.15
2023-04-08T11:45:14.367Z,2.75
2023-04-08T11:47:45.524Z,1.38
2023-04-08T11:50:27.218Z,2.85
2023-04-08T11:52:56.323Z,3.13
2023-04-08T11:55:26.925Z,2.67
2023-04-08T11:57:56.661Z,1.70
2023-04-08T12:00:25.519Z,9.07
2023-04-08T12:02:56.375Z,2.22
2023-04-08T12:05:26.974Z,3.67
2023-04-08T12:07:55.628Z,2.10
2023-04-08T12:10:26.070Z,2.25
2023-04-08T12:12:54.762Z,3.75
2023-04-08T12:15:23.329Z,2.55
2023-04-08T12:17:51.994Z,2.65
2023-04-08T12:20:22.291Z,3.92
2023-04-08T12:22:52.094Z,2.75
2023-04-08T12:25:20.897Z,1.75
2023-04-08T12:27:50.034Z,3.67
2023-04-08T12:30:18.896Z,1.63
2023-04-08T12:32:48.178Z,1.63
2023-04-08T12:35:17.415Z,7.72
2023-04-08T12:37:47.885Z,2.95
2023-04-08T12:40:16.645Z,1.27
2023-04-08T12:42:45.145Z,2.95
2023-04-08T12:45:14.051Z,2.83
2023-04-08T12:47:42.650Z,1.77
2023-04-08T12:50:11.820Z,2.95
2023-04-08T12:52:41.316Z,2.30
2023-04-08T12:55:12.145Z,1.60
2023-04-08T12:57:40.977Z,1.67
2023-04-08T13:00:11.710Z,1.65
2023-04-08T13:02:40.967Z,2.03
2023-04-08T13:05:09.644Z,2.53
2023-04-08T13:07:37.863Z,2.70
2023-04-08T13:10:07.365Z,1.63
2023-04-08T13:12:39.205Z,1.80
2023-04-08T13:15:08.895Z,2.10
2023-04-08T13:17:36.990Z,2.28
2023-04-08T13:20:06.990Z,3.50
2023-04-08T13:22:34.996Z,2.80
2023-04-08T13:25:03.218Z,3.20
2023-04-08T13:27:31.226Z,1.77
2023-04-08T13:30:01.151Z,2.50
2023-04-08T13:32:29.394Z,1.90
2023-04-08T13:34:57.578Z,1.80
2023-04-08T13:37:25.624Z,3.10
2023-04-08T13:39:55.304Z,2.40
2023-04-08T13:42:23.790Z,2.50
2023-04-08T13:44:51.841Z,2.28
2023-04-08T13:47:21.921Z,2.92
2023-04-08T13:49:50.194Z,2.00
2023-04-08T13:52:18.160Z,2.55
2023-04-08T13:54:46.540Z,1.52
2023-04-08T13:57:14.487Z,3.17
2023-04-08T13:59:44.447Z,2.42
2023-04-08T14:02:13.311Z,2.33
2023-04-08T14:04:43.898Z,3.30
2023-04-08T14:07:12.161Z,2.03
2023-04-08T14:09:40.272Z,2.97
2023-04-08T14:12:08.778Z,3.15
2023-04-08T14:14:37.021Z,2.28
2023-04-08T14:17:05.349Z,4.03
2023-04-08T14:19:33.647Z,1.90
2023-04-08T14:22:03.572Z,2.28
2023-04-08T14:24:31.623Z,2.30
2023-04-08T14:26:59.974Z,1.85
2023-04-08T14:29:28.199Z,2.90
2023-04-08T14:31:56.408Z,1.13
2023-04-08T14:34:24.883Z,2.50
2023-04-08T14:36:53.415Z,1.27
2023-04-08T14:39:23.243Z,1.90
2023-04-08T14:41:51.494Z,2.05
2023-04-08T14:44:19.484Z,2.90
2023-04-08T14:46:48.433Z,5.30
2023-04-08T14:49:16.555Z,6.85
2023-04-08T14:51:44.758Z,4.95
2023-04-08T14:54:14.503Z,7.30
2023-04-08T14:56:44.257Z,3.95
2023-04-08T14:59:12.385Z,3.85
2023-04-08T15:01:41.750Z,5.60
2023-04-08T15:04:10.120Z,5.63
2023-04-08T15:06:40.667Z,2.75
2023-04-08T15:09:08.911Z,4.85
2023-04-08T15:11:36.977Z,4.28
2023-04-08T15:14:06.664Z,1.90
2023-04-08T15:16:34.954Z,4.47
2023-04-08T15:19:04.817Z,4.10
2023-04-08T15:21:32.978Z,1.42
2023-04-08T15:24:01.147Z,4.28
2023-04-08T15:26:29.277Z,4.90
2023-04-08T15:28:59.269Z,2.25
2023-04-08T15:31:28.939Z,2.50
2023-04-08T15:33:57.066Z,3.78
2023-04-08T15:36:25.244Z,4.43
2023-04-08T15:38:53.536Z,2.63
2023-04-08T15:41:22.416Z,4.07
2023-04-08T15:43:50.612Z,2.92
2023-04-08T15:46:19.512Z,6.82
2023-04-08T15:48:49.822Z,1.83
2023-04-08T15:51:18.237Z,4.00
2023-04-08T15:53:46.336Z,2.10
2023-04-08T15:56:15.065Z,3.55
2023-04-08T15:58:43.326Z,2.65
2023-04-08T16:01:11.805Z,3.22
2023-04-08T16:03:40.304Z,2.30
2023-04-08T16:06:10.353Z,3.33
2023-04-08T16:08:41.037Z,1.88
2023-04-08T16:11:10.201Z,3.50
2023-04-08T16:13:42.620Z,2.25
2023-04-08T16:16:12.672Z,3.72
2023-04-08T16:18:42.253Z,1.80
2023-04-08T16:21:13.372Z,4.60
2023-04-08T16:23:42.792Z,1.70
2023-04-08T16:26:12.002Z,3.35
2023-04-08T16:28:40.566Z,4.43
2023-04-08T16:31:11.400Z,2.42
2023-04-08T16:33:40.875Z,2.65
2023-04-08T16:36:09.231Z,2.28
2023-04-08T16:38:39.479Z,3.45
2023-04-08T16:41:10.410Z,2.67
2023-04-08T16:43:38.810Z,2.20
2023-04-08T16:46:12.267Z,2.50
2023-04-08T16:48:44.912Z,2.53
2023-04-08T16:51:14.076Z,1.73
2023-04-08T16:53:44.599Z,3.15
2023-04-08T16:56:17.054Z,1.80
2023-04-08T16:58:46.387Z,3.72
2023-04-08T17:01:14.601Z,3.33
2023-04-08T17:03:43.084Z,4.63
2023-04-08T17:06:14.185Z,2.55
2023-04-08T17:08:44.255Z,3.78
2023-04-08T17:11:15.577Z,2.78
2023-04-08T17:13:45.100Z,4.32
2023-04-08T17:16:15.313Z,3.03
2023-04-08T17:18:44.153Z,3.50
2023-04-08T17:21:16.001Z,2.40
2023-04-08T17:23:46.178Z,3.85
2023-04-08T17:26:14.434Z,3.15
2023-04-08T17:28:43.559Z,4.40
2023-04-08T17:31:11.829Z,3.33
2023-04-08T17:33:40.251Z,3.25
2023-04-08T17:36:09.284Z,2.75
2023-04-08T17:38:40.416Z,3.45
2023-04-08T17:41:13.460Z,2.97
2023-04-08T17:43:46.100Z,3.85
2023-04-08T17:46:14.657Z,2.72
2023-04-08T17:48:43.773Z,3.05
2023-04-08T17:51:12.179Z,2.58
2023-04-08T17:53:40.438Z,1.42
2023-04-08T17:56:10.458Z,2.25
2023-04-08T17:58:38.914Z,3.45
2023-04-08T18:01:07.303Z,2.10
2023-04-08T18:03:35.741Z,2.80
2023-04-08T18:06:04.117Z,3.15
2023-04-08T18:08:32.092Z,3.33
2023-04-08T18:11:00.559Z,4.63
2023-04-08T18:13:30.807Z,6.70
2023-04-08T18:15:59.341Z,6.65
2023-04-08T18:18:27.779Z,6.00
2023-04-08T18:20:56.111Z,5.72
2023-04-08T18:23:24.580Z,5.25
2023-04-08T18:25:53.120Z,5.07
2023-04-08T18:28:22.809Z,6.38
2023-04-08T18:30:53.524Z,3.78
2023-04-08T18:33:22.158Z,5.32
2023-04-08T18:35:50.491Z,4.88
2023-04-08T18:38:18.800Z,2.63
2023-04-08T18:40:47.313Z,5.88
2023-04-08T18:43:15.949Z,6.95
2023-04-08T18:45:44.258Z,6.20
2023-04-08T18:48:14.086Z,2.97
2023-04-08T18:50:42.249Z,3.58
2023-04-08T18:53:10.700Z,4.18
2023-04-08T18:55:39.440Z,3.78
2023-04-08T18:58:08.051Z,5.45
2023-04-08T19:00:37.400Z,4.75
2023-04-08T19:03:08.752Z,4.65
2023-04-08T19:05:40.276Z,5.75
2023-04-08T19:08:09.109Z,4.28
2023-04-08T19:10:37.425Z,3.35
2023-04-08T19:13:05.678Z,6.03
2023-04-08T19:15:34.059Z,5.38
2023-04-08T19:18:02.535Z,5.07
2023-04-08T19:20:31.035Z,4.63
2023-04-08T19:23:01.207Z,5.70
2023-04-08T19:25:30.294Z,8.40
2023-04-08T19:27:58.874Z,7.50
2023-04-08T19:30:27.284Z,6.63
2023-04-08T19:32:55.679Z,8.73
2023-04-08T19:35:24.746Z,5.50
2023-04-08T19:37:53.515Z,5.45
2023-04-08T19:40:23.658Z,5.00
2023-04-08T19:42:52.993Z,5.25
2023-04-08T19:45:21.598Z,5.07
2023-04-08T19:47:49.840Z,7.15
2023-04-08T19:50:18.574Z,7.07
2023-04-08T19:52:47.634Z,6.35
2023-04-08T19:55:16.636Z,5.75
2023-04-08T19:57:46.865Z,7.78
2023-04-08T20:00:16.288Z,5.05
2023-04-08T20:02:46.040Z,5.30
2023-04-08T20:05:18.567Z,5.70
2023-04-08T20:07:48.652Z,4.90
2023-04-08T20:10:17.658Z,4.25
2023-04-08T20:12:47.541Z,4.35
2023-04-08T20:15:24.136Z,4.80
2023-04-08T20:17:53.861Z,4.53
2023-04-08T20:20:23.159Z,4.95
2023-04-08T20:22:51.742Z,4.00
2023-04-08T20:25:21.234Z,3.30
2023-04-08T20:27:52.066Z,3.78
2023-04-08T20:30:20.565Z,6.63
2023-04-08T20:32:49.313Z,5.47
2023-04-08T20:35:17.782Z,4.70
2023-04-08T20:37:47.100Z,5.25
2023-04-08T20:40:18.081Z,5.50
2023-04-08T20:42:47.321Z,6.82
2023-04-08T20:45:17.140Z,5.00
2023-04-08T20:47:46.514Z,6.65
2023-04-08T20:50:15.504Z,6.22
2023-04-08T20:52:43.961Z,5.47
2023-04-08T20:55:12.880Z,5.72
2023-04-08T20:57:42.880Z,4.60
2023-04-08T21:00:13.977Z,3.92
2023-04-08T21:02:44.312Z,4.25
2023-04-08T21:05:12.510Z,6.50
2023-04-08T21:07:44.688Z,5.22
2023-04-08T21:10:14.447Z,4.63
2023-04-08T21:12:42.830Z,4.88
2023-04-08T21:15:11.572Z,5.35
2023-04-08T21:17:39.927Z,6.10
2023-04-08T21:20:11.194Z,5.28
2023-04-08T21:22:39.319Z,4.15
2023-04-08T21:25:08.127Z,7.22
2023-04-08T21:27:36.433Z,7.32
2023-04-08T21:30:04.663Z,8.65
2023-04-08T21:32:32.868Z,6.65
2023-04-08T21:35:01.746Z,6.03
2023-04-08T21:37:31.466Z,8.40
2023-04-08T21:39:59.433Z,9.05
2023-04-08T21:42:27.934Z,8.32
2023-04-08T21:44:56.060Z,7.97
2023-04-08T21:47:24.262Z,9.05
2023-04-08T21:49:52.283Z,9.90
2023-04-08T21:52:23.519Z,6.07
2023-04-08T21:54:54.094Z,6.45
2023-04-08T21:57:24.192Z,7.13
2023-04-08T21:59:52.345Z,7.50
2023-04-08T22:02:20.849Z,8.05
2023-04-08T22:04:49.546Z,7.45
2023-04-08T22:07:17.588Z,5.97
2023-04-08T22:09:46.537Z,6.95
2023-04-08T22:12:16.481Z,7.20
2023-04-08T22:14:44.542Z,6.85
2023-04-08T22:17:12.942Z,7.72
2023-04-08T22:19:41.309Z,6.25
2023-04-08T22:25:56.521Z,7.65
2023-04-08T22:28:26.400Z,9.98
2023-04-08T22:30:55.403Z,11.85
2023-04-08T22:33:23.732Z,9.45
2023-04-08T22:35:52.276Z,10.48
2023-04-08T22:38:20.678Z,8.55
2023-04-08T22:40:49.028Z,6.88
2023-04-08T22:43:17.223Z,8.45
2023-04-08T22:45:47.062Z,8.63
2023-04-08T22:48:15.851Z,9.40
2023-04-08T22:50:44.097Z,7.10
2023-04-08T22:53:13.445Z,9.15
2023-04-08T22:55:42.180Z,6.47
2023-04-08T22:58:10.823Z,5.78
2023-04-08T23:00:39.262Z,4.78
2023-04-08T23:03:09.103Z,7.28
2023-04-08T23:05:37.550Z,6.68
2023-04-08T23:08:06.393Z,8.25
2023-04-08T23:10:35.032Z,6.88
2023-04-08T23:13:03.196Z,6.93
2023-04-08T23:15:32.038Z,7.38
2023-04-08T23:18:00.398Z,7.05
2023-04-08T23:20:30.422Z,5.50
2023-04-08T23:22:58.596Z,5.53
2023-04-08T23:25:27.003Z,6.55
2023-04-08T23:27:55.894Z,5.68
2023-04-08T23:30:23.976Z,5.10
2023-04-08T23:32:51.909Z,5.72
2023-04-08T23:35:20.239Z,5.88
2023-04-08T23:37:49.846Z,5.93
2023-04-08T23:40:18.246Z,7.78
2023-04-08T23:42:46.394Z,6.60
2023-04-08T23:45:14.908Z,6.25
2023-04-08T23:47:43.216Z,5.88
2023-04-08T23:50:11.834Z,7.47
2023-04-08T23:52:40.210Z,6.53
2023-04-08T23:55:11.028Z,4.82
2023-04-08T23:57:41.965Z,6.18
